Time;durP1;ratioP1;P1;durP2;ratioP2;P2;SDS_P1;SDS_P2;PMS_P1;PMS_P2;Temp;Humidity;BMP_temperature;BMP_pressure;BME280_temperature;BME280_humidity;BME280_pressure;Samples;Min_cycle;Max_cycle;Signal;HPM_P1;HPM_P2
2022/03/06 00:00:14;;;;;;;13.20;12.40;;;;;;;1.34;98.03;92381.88;5087309;28;20185;-80
2022/03/06 00:02:40;;;;;;;13.53;12.63;;;;;;;1.59;98.74;92415.78;5100978;28;20250;-80
2022/03/06 00:05:06;;;;;;;12.97;12.27;;;;;;;1.36;97.82;92385.78;5087489;28;20212;-81
2022/03/06 00:07:32;;;;;;;13.20;12.43;;;;;;;1.42;98.07;92391.78;5086651;28;20319;-80
2022/03/06 00:09:57;;;;;;;12.13;11.37;;;;;;;1.45;98.32;92407.56;5086820;28;20196;-80
2022/03/06 00:12:23;;;;;;;11.87;11.17;;;;;;;1.58;98.46;92416.81;5087650;28;20240;-80
2022/03/06 00:14:48;;;;;;;11.63;10.93;;;;;;;1.64;98.18;92415.88;5087382;28;20223;-81
2022/03/06 00:17:14;;;;;;;12.67;11.90;;;;;;;1.49;98.57;92398.38;5087458;28;20222;-80
2022/03/06 00:19:39;;;;;;;12.47;11.67;;;;;;;1.36;98.22;92379.84;5080004;28;20186;-80
2022/03/06 00:22:05;;;;;;;11.73;11.03;;;;;;;1.54;97.89;92408.75;5086755;28;20181;-80
2022/03/06 00:24:30;;;;;;;12.33;11.43;;;;;;;1.44;97.96;92398.28;5086858;28;20196;-81
2022/03/06 00:26:56;;;;;;;14.37;13.23;;;;;;;1.49;99.10;92400.94;5086304;28;20211;-80
2022/03/06 00:29:21;;;;;;;12.67;11.87;;;;;;;1.36;97.71;92398.66;5088040;28;20185;-80
2022/03/06 00:31:46;;;;;;;13.60;12.70;;;;;;;1.11;98.85;92357.03;5090311;28;20193;-80
2022/03/06 00:34:12;;;;;;;13.77;12.97;;;;;;;1.41;98.18;92391.03;5089308;28;20225;-81
2022/03/06 00:36:37;;;;;;;12.57;11.73;;;;;;;1.72;97.44;92409.59;5107392;28;20189;-81
2022/03/06 00:39:04;;;;;;;12.70;11.90;;;;;;;1.56;96.92;92385.38;5088162;28;20235;-80
2022/03/06 00:41:29;;;;;;;12.97;12.07;;;;;;;1.41;95.87;92383.31;5092268;28;20189;-81
2022/03/06 00:43:55;;;;;;;13.67;12.77;;;;;;;1.57;96.54;92404.97;5085652;28;20277;-81
2022/03/06 00:46:21;;;;;;;12.67;11.87;;;;;;;1.50;97.25;92406.88;5107076;28;20198;-80
2022/03/06 00:48:46;;;;;;;13.30;12.47;;;;;;;1.41;97.43;92391.03;5103837;28;21084;-80
2022/03/06 00:51:13;;;;;;;14.03;13.03;;;;;;;1.33;97.69;92375.97;5088381;28;20209;-81
2022/03/06 00:53:38;;;;;;;13.83;12.93;;;;;;;1.35;97.50;92368.78;5090604;28;20228;-81
2022/03/06 00:56:04;;;;;;;13.93;13.00;;;;;;;1.37;97.52;92360.88;5089738;28;20250;-81
2022/03/06 00:58:29;;;;;;;13.47;12.57;;;;;;;1.59;97.36;92390.84;5088318;28;20235;-80
2022/03/06 01:00:55;;;;;;;14.77;13.77;;;;;;;1.57;97.94;92382.56;5107951;28;20234;-81
2022/03/06 01:03:21;;;;;;;13.57;12.57;;;;;;;1.21;97.15;92341.00;5089240;28;20232;-81
2022/03/06 01:05:48;;;;;;;13.37;12.43;;;;;;;1.30;97.12;92344.78;5091346;28;20626;-82
2022/03/06 01:08:14;;;;;;;14.67;13.63;;;;;;;1.53;97.28;92381.47;5090161;28;20284;-81
2022/03/06 01:10:42;;;;;;;13.67;12.77;;;;;;;1.33;97.76;92370.03;5087614;28;20176;-81
2022/03/06 01:13:09;;;;;;;13.57;12.60;;;;;;;1.43;98.13;92383.84;5091435;28;20235;-81
2022/03/06 01:15:35;;;;;;;14.40;13.33;;;;;;;1.20;96.92;92349.72;5087945;28;20207;-81
2022/03/06 01:18:02;;;;;;;14.13;13.23;;;;;;;1.40;98.35;92383.56;5088538;28;20241;-81
2022/03/06 01:20:28;;;;;;;13.53;12.63;;;;;;;1.17;97.52;92347.59;5090898;28;20195;-81
2022/03/06 01:22:54;;;;;;;14.50;13.50;;;;;;;1.41;97.78;92373.03;5087846;28;20217;-80
2022/03/06 01:25:20;;;;;;;14.60;13.60;;;;;;;1.50;97.12;92379.38;5091527;28;20188;-81
2022/03/06 01:27:46;;;;;;;14.07;13.17;;;;;;;1.41;97.05;92377.38;5087092;28;20243;-81
2022/03/06 01:30:17;;;;;;;15.27;14.20;;;;;;;1.48;96.17;92353.09;5089466;28;20189;-81
2022/03/06 01:32:42;;;;;;;14.30;13.30;;;;;;;1.41;96.19;92344.75;5088614;28;20224;-82
2022/03/06 01:35:08;;;;;;;14.20;13.23;;;;;;;1.53;96.56;92383.25;5089109;28;20207;-81
2022/03/06 01:37:34;;;;;;;15.03;13.97;;;;;;;1.40;96.62;92376.59;5086338;28;20232;-81
2022/03/06 01:39:59;;;;;;;15.13;14.13;;;;;;;1.43;96.99;92365.09;5087267;28;20678;-81
2022/03/06 01:42:25;;;;;;;14.80;13.73;;;;;;;1.38;96.39;92358.06;5089448;28;20247;-81
2022/03/06 01:44:51;;;;;;;15.07;14.03;;;;;;;1.44;96.78;92375.16;5089240;28;20215;-81
2022/03/06 01:47:35;;;;;;;14.57;13.57;;;;;;;1.58;95.52;92366.16;5087392;28;20227;-81
2022/03/06 01:50:03;;;;;;;14.33;13.33;;;;;;;1.10;95.80;92301.50;5089494;28;20211;-81
2022/03/06 01:52:29;;;;;;;15.20;14.10;;;;;;;1.31;96.40;92328.34;5102045;28;20236;-81
2022/03/06 01:54:55;;;;;;;15.53;14.43;;;;;;;1.22;96.33;92311.72;5088206;28;20212;-81
2022/03/06 01:57:20;;;;;;;15.50;14.20;;;;;;;1.43;96.24;92360.72;5090355;28;20237;-81
2022/03/06 01:59:46;;;;;;;16.17;15.00;;;;;;;1.48;95.24;92329.16;5085296;28;20185;-81
2022/03/06 02:02:11;;;;;;;16.63;15.33;;;;;;;1.53;95.18;92354.97;5089042;28;20236;-81
2022/03/06 02:04:37;;;;;;;14.90;13.87;;;;;;;1.36;95.38;92331.78;5088622;28;20189;-81
2022/03/06 02:07:02;;;;;;;15.83;14.63;;;;;;;1.34;95.49;92320.16;5089021;28;20192;-81
2022/03/06 02:09:28;;;;;;;16.13;14.83;;;;;;;1.55;95.46;92358.09;5105641;28;20248;-82
2022/03/06 02:14:38;;;;;;;17.07;15.77;;;;;;;1.31;96.85;92326.56;5087961;28;20219;-83
2022/03/06 02:17:04;;;;;;;15.30;14.20;;;;;;;1.54;96.29;92362.47;5088813;28;20185;-81
2022/03/06 02:19:29;;;;;;;15.70;14.60;;;;;;;1.22;95.75;92322.78;5087572;28;20260;-81
2022/03/06 02:21:54;;;;;;;15.93;14.87;;;;;;;1.26;96.20;92333.41;5089385;28;20256;-81
2022/03/06 02:24:20;;;;;;;15.93;14.73;;;;;;;1.22;96.69;92332.28;5086914;28;20209;-82
2022/03/06 02:26:45;;;;;;;14.83;13.73;;;;;;;1.52;94.85;92356.78;5088345;28;20173;-81
2022/03/06 02:29:11;;;;;;;16.27;14.97;;;;;;;1.28;94.92;92332.16;5087541;28;20824;-82
2022/03/06 02:31:36;;;;;;;15.87;14.77;;;;;;;1.51;95.98;92357.78;5085727;28;20189;-82
2022/03/06 02:34:02;;;;;;;15.83;14.53;;;;;;;1.46;95.00;92357.69;5088810;28;20828;-82
2022/03/06 02:36:28;;;;;;;15.47;14.37;;;;;;;1.33;95.48;92334.81;5087414;28;20207;-82
2022/03/06 02:38:53;;;;;;;14.30;13.30;;;;;;;1.64;94.24;92343.84;5087427;28;20239;-81
2022/03/06 02:41:19;;;;;;;15.33;14.33;;;;;;;1.54;95.20;92362.47;5084798;28;20176;-82
2022/03/06 02:43:44;;;;;;;16.73;15.43;;;;;;;1.58;94.33;92365.34;5085830;28;20233;-81
2022/03/06 02:46:09;;;;;;;15.40;14.30;;;;;;;1.48;93.57;92342.00;5086518;28;20248;-81
2022/03/06 02:48:35;;;;;;;14.87;13.83;;;;;;;1.18;95.14;92319.09;5084931;28;20236;-81
2022/03/06 02:51:00;;;;;;;15.33;14.23;;;;;;;1.44;95.84;92362.28;5087545;28;20254;-81
2022/03/06 02:53:26;;;;;;;14.00;13.03;;;;;;;0.79;96.17;92276.22;5085670;28;20250;-82
2022/03/06 02:55:52;;;;;;;16.97;15.67;;;;;;;1.32;95.64;92369.25;5086990;28;20193;-81
2022/03/06 02:58:17;;;;;;;14.17;13.17;;;;;;;1.03;95.93;92313.69;5078439;28;20229;-82
2022/03/06 03:00:44;;;;;;;15.30;14.20;;;;;;;1.34;96.31;92361.31;5087263;28;20264;-82
2022/03/06 03:03:09;;;;;;;14.43;13.53;;;;;;;1.07;95.98;92324.28;5088470;28;20232;-81
2022/03/06 03:05:35;;;;;;;13.90;13.00;;;;;;;1.10;95.50;92313.56;5086055;28;20179;-81
2022/03/06 03:08:00;;;;;;;14.83;13.73;;;;;;;1.19;95.58;92328.38;5084148;28;20225;-82
2022/03/06 03:10:26;;;;;;;14.63;13.63;;;;;;;1.34;95.81;92362.09;5088962;28;20195;-81
2022/03/06 03:12:53;;;;;;;14.37;13.37;;;;;;;1.37;96.42;92360.88;5083356;28;20235;-81
2022/03/06 03:15:19;;;;;;;14.73;13.70;;;;;;;0.89;96.42;92312.38;5085417;28;20213;-81
2022/03/06 03:17:45;;;;;;;15.03;14.03;;;;;;;1.17;97.00;92335.53;5103884;28;20251;-82
2022/03/06 03:20:11;;;;;;;14.93;13.93;;;;;;;1.28;97.13;92355.28;5083518;28;20276;-81
2022/03/06 03:22:37;;;;;;;14.50;13.50;;;;;;;1.31;96.43;92367.69;5087928;28;20240;-81
2022/03/06 03:25:03;;;;;;;14.00;13.00;;;;;;;1.19;96.05;92354.09;5084379;28;20185;-80
2022/03/06 03:27:29;;;;;;;12.67;11.87;;;;;;;1.28;95.63;92359.66;5085469;28;20232;-80
2022/03/06 03:29:54;;;;;;;13.60;12.80;;;;;;;0.85;96.60;92313.84;5102982;28;20214;-80
2022/03/06 03:32:20;;;;;;;13.50;12.63;;;;;;;1.13;96.31;92334.44;5100746;28;20242;-80
2022/03/06 03:34:45;;;;;;;13.10;12.30;;;;;;;1.19;95.45;92361.81;5089321;28;20220;-80
2022/03/06 03:37:11;;;;;;;12.73;12.03;;;;;;;1.12;96.39;92371.41;5085472;28;20564;-80
2022/03/06 03:39:36;;;;;;;15.33;14.30;;;;;;;1.06;97.50;92364.63;5084259;28;20200;-80
2022/03/06 03:42:02;;;;;;;13.23;12.23;;;;;;;1.13;97.14;92362.72;5088701;28;20185;-81
2022/03/06 03:44:28;;;;;;;13.40;12.57;;;;;;;1.11;97.87;92367.31;5086443;28;20244;-80
2022/03/06 03:46:53;;;;;;;12.53;11.87;;;;;;;1.18;97.28;92373.06;5086633;28;20251;-79
2022/03/06 03:49:19;;;;;;;12.47;11.67;;;;;;;1.03;96.99;92362.50;5084884;28;20185;-80
2022/03/06 03:51:44;;;;;;;13.27;12.47;;;;;;;0.88;97.94;92351.94;5087013;28;20196;-80
2022/03/06 03:54:10;;;;;;;12.70;12.00;;;;;;;0.89;97.71;92361.19;5086063;28;20236;-80
2022/03/06 03:56:35;;;;;;;11.87;11.27;;;;;;;0.92;96.98;92358.19;5081155;28;20260;-79
2022/03/06 03:59:01;;;;;;;12.50;11.80;;;;;;;0.88;98.19;92346.81;5085304;28;20231;-79
2022/03/06 04:01:27;;;;;;;12.67;12.00;;;;;;;0.99;98.01;92373.47;5086775;28;20240;-80
2022/03/06 04:03:52;;;;;;;13.33;12.53;;;;;;;1.00;98.05;92380.94;5088139;28;20307;-79
2022/03/06 04:06:18;;;;;;;13.17;12.33;;;;;;;0.91;98.20;92372.03;5111176;28;20191;-80
2022/03/06 04:08:43;;;;;;;11.70;11.00;;;;;;;0.87;97.91;92376.03;5091188;28;20287;-80
2022/03/06 04:11:09;;;;;;;12.37;11.63;;;;;;;0.80;97.17;92360.00;5093615;28;20216;-80
2022/03/06 04:13:34;;;;;;;12.50;11.80;;;;;;;0.86;97.85;92377.06;5092106;28;20217;-79
2022/03/06 04:16:00;;;;;;;13.27;12.50;;;;;;;0.90;97.56;92373.03;5093657;28;20201;-80
2022/03/06 04:18:25;;;;;;;11.47;10.87;;;;;;;0.80;98.30;92377.97;5085783;28;20637;-79
2022/03/06 04:20:50;;;;;;;11.40;10.77;;;;;;;0.89;96.73;92379.19;5093786;28;20284;-79
2022/03/06 04:23:17;;;;;;;12.73;12.03;;;;;;;0.95;96.60;92375.69;5083971;28;20223;-79
2022/03/06 04:25:42;;;;;;;13.63;12.83;;;;;;;0.76;97.59;92355.53;5091802;28;20222;-78
2022/03/06 04:28:08;;;;;;;12.40;11.73;;;;;;;0.87;97.09;92383.00;5090960;28;20225;-79
2022/03/06 04:30:34;;;;;;;11.13;10.53;;;;;;;0.67;97.49;92364.59;5092543;28;20196;-79
2022/03/06 04:32:59;;;;;;;11.73;11.13;;;;;;;0.56;97.43;92350.72;5109209;28;20223;-78
2022/03/06 04:35:25;;;;;;;12.77;12.07;;;;;;;0.72;98.12;92373.16;5092186;28;20201;-78
2022/03/06 04:37:50;;;;;;;12.47;11.77;;;;;;;0.87;97.18;92381.19;5092219;28;20239;-78
2022/03/06 04:40:16;;;;;;;12.07;11.47;;;;;;;0.77;96.87;92398.97;5109098;28;20300;-78
2022/03/06 04:42:41;;;;;;;11.77;11.17;;;;;;;0.56;97.02;92355.88;5094114;28;20247;-78
2022/03/06 04:45:08;;;;;;;11.57;10.97;;;;;;;0.60;96.66;92362.13;5094726;28;20191;-78
2022/03/06 04:47:34;;;;;;;12.00;11.40;;;;;;;0.70;97.10;92385.44;5091606;28;20231;-79
2022/03/06 04:49:59;;;;;;;11.43;10.83;;;;;;;0.56;96.42;92363.56;5092474;28;20189;-79
2022/03/06 04:52:25;;;;;;;11.43;10.73;;;;;;;0.64;96.48;92385.59;5090975;28;20250;-79
2022/03/06 04:54:51;;;;;;;11.37;10.77;;;;;;;0.57;96.52;92370.28;5094120;28;20220;-79
2022/03/06 04:57:16;;;;;;;10.97;10.43;;;;;;;0.76;96.74;92391.50;5106784;28;20231;-79
2022/03/06 04:59:42;;;;;;;11.70;11.10;;;;;;;0.64;96.29;92380.44;5093120;28;20201;-79
2022/03/06 05:02:08;;;;;;;10.47;9.97;;;;;;;0.36;95.71;92322.06;5092972;28;20201;-79
2022/03/06 05:04:34;;;;;;;11.23;10.67;;;;;;;0.87;95.62;92391.47;5092764;28;20207;-79
2022/03/06 05:06:59;;;;;;;11.43;10.87;;;;;;;0.63;96.10;92363.47;5093389;28;20192;-83
2022/03/06 05:09:25;;;;;;;11.57;10.97;;;;;;;0.75;95.91;92371.94;5088925;28;20205;-80
2022/03/06 05:11:51;;;;;;;12.60;12.00;;;;;;;0.56;95.61;92386.69;5088751;28;20215;-80
2022/03/06 05:14:16;;;;;;;12.03;11.33;;;;;;;0.75;95.73;92398.41;5092233;28;20296;-77
2022/03/06 05:16:42;;;;;;;11.20;10.60;;;;;;;0.55;95.72;92374.84;5103244;28;20252;-77
2022/03/06 05:19:08;;;;;;;11.73;11.13;;;;;;;0.48;96.17;92379.34;5090433;28;20243;-79
2022/03/06 05:21:33;;;;;;;11.73;11.13;;;;;;;0.58;95.63;92387.25;5087792;28;20287;-79
2022/03/06 05:23:59;;;;;;;11.60;10.97;;;;;;;0.40;95.36;92359.13;5106333;28;20220;-84
2022/03/06 05:26:24;;;;;;;11.97;11.30;;;;;;;0.51;94.38;92352.41;5102789;28;20192;-83
2022/03/06 05:28:49;;;;;;;11.07;10.50;;;;;;;0.65;93.80;92393.06;5087959;28;20232;-85
2022/03/06 05:31:15;;;;;;;12.23;11.50;;;;;;;0.57;94.64;92390.03;5088185;28;20253;-87
2022/03/06 05:33:41;;;;;;;12.17;11.47;;;;;;;0.63;94.79;92389.13;5087093;28;20220;-88
2022/03/06 05:36:06;;;;;;;11.60;10.90;;;;;;;0.70;93.88;92395.72;5090719;28;20222;-88
2022/03/06 05:38:31;;;;;;;12.07;11.43;;;;;;;0.56;94.39;92396.97;5085856;28;20221;-87
2022/03/06 05:40:57;;;;;;;11.47;10.87;;;;;;;0.53;93.68;92374.28;5090100;28;20168;-86
2022/03/06 05:43:22;;;;;;;11.27;10.67;;;;;;;0.79;93.80;92402.09;5088591;28;20288;-84
2022/03/06 05:45:50;;;;;;;16.13;14.83;;;;;;;0.37;92.95;92336.47;5087467;28;20189;-83
2022/03/06 05:48:22;;;;;;;12.50;11.80;;;;;;;0.67;92.64;92401.31;5086928;28;20208;-83
2022/03/06 05:50:47;;;;;;;11.70;11.20;;;;;;;0.72;92.98;92388.59;5084621;28;20294;-83
2022/03/06 05:53:13;;;;;;;11.27;10.57;;;;;;;0.58;91.99;92366.72;5089626;28;20225;-82
2022/03/06 05:55:39;;;;;;;11.37;10.57;;;;;;;0.70;92.84;92394.97;5086590;28;20223;-83
2022/03/06 05:58:04;;;;;;;11.63;11.03;;;;;;;0.35;92.00;92328.22;5088923;28;20217;-85
2022/03/06 06:00:30;;;;;;;10.90;10.40;;;;;;;0.79;92.13;92402.09;5086156;28;20195;-84
2022/03/06 06:02:56;;;;;;;11.57;10.97;;;;;;;0.66;91.75;92389.47;5087320;28;20259;-82
2022/03/06 06:05:22;;;;;;;9.87;9.37;;;;;;;0.79;91.84;92393.59;5085142;28;20185;-83
2022/03/06 06:07:49;;;;;;;11.17;10.67;;;;;;;0.73;89.40;92394.50;5087533;28;20235;-84
2022/03/06 06:10:15;;;;;;;11.47;10.87;;;;;;;0.62;89.43;92383.25;5086693;28;20202;-84
2022/03/06 06:12:41;;;;;;;12.20;11.40;;;;;;;0.76;90.58;92406.91;5085956;28;20231;-85
2022/03/06 06:15:08;;;;;;;12.17;11.37;;;;;;;0.79;89.67;92409.03;5087790;28;20805;-82
2022/03/06 06:17:33;;;;;;;14.00;12.87;;;;;;;0.83;90.46;92413.47;5088300;28;20229;-84
2022/03/06 06:20:00;;;;;;;11.70;10.93;;;;;;;0.61;91.28;92397.06;5085715;28;20220;-78
2022/03/06 06:22:28;;;;;;;12.40;11.43;;;;;;;0.56;91.17;92375.66;5085922;28;20228;-75
2022/03/06 06:24:54;;;;;;;17.10;15.10;;;;;;;0.60;90.69;92403.22;5088447;28;20193;-78
2022/03/06 06:27:19;;;;;;;10.67;10.10;;;;;;;0.33;92.84;92348.19;5086333;28;20236;-86
2022/03/06 06:29:45;;;;;;;10.57;9.97;;;;;;;0.65;90.29;92411.03;5085512;28;20210;-90
2022/03/06 06:32:10;;;;;;;10.73;10.13;;;;;;;0.57;91.28;92408.03;5087440;28;20246;-86
2022/03/06 06:34:36;;;;;;;11.03;10.53;;;;;;;0.36;92.82;92391.38;5100424;28;20204;-85
2022/03/06 06:37:02;;;;;;;11.30;10.70;;;;;;;0.68;93.16;92431.16;5086203;28;20200;-82
2022/03/06 06:39:28;;;;;;;10.90;10.13;;;;;;;0.72;91.86;92429.69;5087773;28;20193;-85
2022/03/06 06:41:53;;;;;;;11.13;10.63;;;;;;;0.51;90.82;92384.03;5087697;28;20288;-82
2022/03/06 06:44:19;;;;;;;11.17;10.60;;;;;;;0.75;91.00;92403.53;5101792;28;20184;-84
2022/03/06 06:46:45;;;;;;;10.07;9.57;;;;;;;0.85;90.75;92433.81;5086821;28;20212;-80
2022/03/06 06:49:13;;;;;;;11.40;10.80;;;;;;;0.64;90.99;92398.44;5086489;28;20220;-85
2022/03/06 06:51:38;;;;;;;10.23;9.60;;;;;;;0.84;90.57;92422.75;5085249;28;20248;-80
2022/03/06 06:54:05;;;;;;;12.07;11.27;;;;;;;1.01;89.36;92423.63;5086016;28;20224;-74
2022/03/06 06:56:30;;;;;;;11.23;10.43;;;;;;;0.84;89.89;92415.03;5083858;28;20347;-76
2022/03/06 06:58:56;;;;;;;11.70;11.00;;;;;;;0.89;91.38;92425.44;5087181;28;20232;-77
2022/03/06 07:01:21;;;;;;;15.23;13.93;;;;;;;0.86;90.78;92419.94;5083848;28;20180;-77
2022/03/06 07:03:47;;;;;;;11.30;10.60;;;;;;;0.98;89.52;92431.03;5084168;28;20236;-78
2022/03/06 07:06:12;;;;;;;12.57;11.87;;;;;;;0.76;91.08;92414.59;5082761;28;20196;-78
2022/03/06 07:08:38;;;;;;;12.20;11.50;;;;;;;0.81;91.20;92428.34;5084262;28;20268;-76
2022/03/06 07:11:03;;;;;;;12.77;12.07;;;;;;;0.73;90.34;92400.41;5087899;28;20191;-77
2022/03/06 07:13:29;;;;;;;10.10;9.57;;;;;;;0.66;89.08;92389.47;5081429;28;20232;-77
2022/03/06 07:15:54;;;;;;;12.00;11.40;;;;;;;0.64;88.06;92390.72;5083539;28;20181;-76
2022/03/06 07:18:19;;;;;;;12.17;11.47;;;;;;;1.02;87.85;92424.41;5085345;28;20217;-88
2022/03/06 07:20:45;;;;;;;11.90;11.20;;;;;;;0.76;87.78;92400.00;5085645;28;20188;-75
2022/03/06 07:23:10;;;;;;;13.90;13.10;;;;;;;0.88;88.79;92412.81;5081615;28;20220;-78
2022/03/06 07:25:36;;;;;;;12.70;11.80;;;;;;;0.94;88.57;92407.56;5081741;28;21095;-76
2022/03/06 07:28:02;;;;;;;11.80;11.20;;;;;;;1.08;87.60;92411.44;5086358;28;20278;-76
2022/03/06 07:30:27;;;;;;;11.20;10.60;;;;;;;1.02;89.44;92391.81;5083412;28;20290;-76
2022/03/06 07:32:53;;;;;;;10.20;9.80;;;;;;;1.13;87.53;92415.91;5100800;28;20359;-76
2022/03/06 07:35:20;;;;;;;11.67;11.07;;;;;;;1.29;85.33;92410.06;5083854;28;20286;-76
2022/03/06 07:37:46;;;;;;;10.93;10.37;;;;;;;1.14;85.10;92407.97;5082738;28;20224;-78
2022/03/06 07:40:14;;;;;;;11.03;10.43;;;;;;;1.22;85.60;92420.47;5083872;28;20195;-77
2022/03/06 07:42:40;;;;;;;11.97;11.27;;;;;;;1.18;86.38;92418.59;5082876;28;20252;-77
2022/03/06 07:45:06;;;;;;;80.87;38.73;;;;;;;1.25;87.17;92429.50;5083579;28;20193;-79
2022/03/06 07:47:32;;;;;;;12.67;11.80;;;;;;;1.10;85.72;92403.50;5081214;28;20286;-77
2022/03/06 07:49:57;;;;;;;11.33;10.67;;;;;;;1.21;87.43;92439.50;5081372;28;20189;-78
2022/03/06 07:52:22;;;;;;;10.67;10.07;;;;;;;1.22;85.33;92435.91;5083734;28;20231;-77
2022/03/06 07:54:48;;;;;;;10.80;10.20;;;;;;;0.97;87.22;92404.53;5099747;28;20231;-76
2022/03/06 07:57:14;;;;;;;10.93;10.33;;;;;;;1.13;86.90;92434.69;5085681;28;20220;-77
2022/03/06 07:59:39;;;;;;;11.47;10.87;;;;;;;1.30;85.61;92448.41;5084313;28;20201;-77
2022/03/06 08:02:05;;;;;;;10.53;10.03;;;;;;;1.26;86.23;92437.00;5087172;28;20208;-74
2022/03/06 08:04:30;;;;;;;11.60;11.00;;;;;;;1.13;86.43;92421.84;5082465;28;20185;-77
2022/03/06 08:06:56;;;;;;;11.90;11.17;;;;;;;1.32;86.89;92441.22;5085193;28;20214;-77
2022/03/06 08:09:24;;;;;;;12.63;11.83;;;;;;;1.20;86.54;92414.78;5086275;28;20201;-77
2022/03/06 08:11:49;;;;;;;12.93;12.10;;;;;;;1.41;84.49;92427.03;5083305;28;20192;-76
2022/03/06 08:14:14;;;;;;;11.13;10.63;;;;;;;1.35;85.89;92440.03;5083896;28;20331;-77
2022/03/06 08:16:40;;;;;;;11.33;10.63;;;;;;;1.07;86.34;92407.31;5100474;28;20224;-77
2022/03/06 08:19:05;;;;;;;11.70;10.90;;;;;;;1.14;85.91;92448.31;5085764;28;20224;-78
2022/03/06 08:21:31;;;;;;;10.73;10.07;;;;;;;1.14;85.58;92446.53;5084556;28;20200;-77
2022/03/06 08:23:56;;;;;;;11.57;10.97;;;;;;;1.12;86.19;92445.19;5085536;28;20236;-77
2022/03/06 08:26:25;;;;;;;12.63;11.90;;;;;;;0.98;85.67;92403.53;5082002;28;20215;-76
2022/03/06 08:28:51;;;;;;;11.90;11.20;;;;;;;1.10;86.86;92444.63;5085472;28;20310;-77
2022/03/06 08:31:17;;;;;;;11.67;11.07;;;;;;;1.17;85.89;92442.72;5086273;28;20188;-78
2022/03/06 08:33:43;;;;;;;11.57;10.97;;;;;;;1.13;86.14;92447.53;5082631;28;20244;-80
2022/03/06 08:36:09;;;;;;;12.03;11.33;;;;;;;1.15;86.12;92432.66;5086469;28;20189;-83
2022/03/06 08:38:34;;;;;;;13.43;12.63;;;;;;;1.34;86.63;92434.09;5081837;28;20224;-78
2022/03/06 08:41:00;;;;;;;12.47;11.77;;;;;;;1.57;85.59;92415.25;5085050;28;20283;-81
2022/03/06 08:43:25;;;;;;;12.03;11.37;;;;;;;1.81;84.72;92433.94;5083902;28;20246;-79
2022/03/06 08:45:51;;;;;;;13.73;12.93;;;;;;;1.91;85.79;92440.06;5082234;28;20208;-79
2022/03/06 08:48:16;;;;;;;15.33;14.43;;;;;;;2.15;84.96;92415.00;5084572;28;20229;-80
2022/03/06 08:50:42;;;;;;;12.60;11.80;;;;;;;2.35;84.47;92436.69;5087433;28;20192;-80
2022/03/06 08:53:07;;;;;;;12.87;12.13;;;;;;;2.34;84.34;92442.06;5088720;28;20217;-79
2022/03/06 08:55:33;;;;;;;13.23;12.43;;;;;;;2.56;83.37;92433.44;5087236;28;20213;-82
2022/03/06 08:57:58;;;;;;;12.07;11.27;;;;;;;2.50;83.06;92433.59;5070088;28;20247;-81
2022/03/06 09:00:24;;;;;;;13.40;12.37;;;;;;;2.59;82.61;92414.94;5088194;28;20214;-80
2022/03/06 09:02:50;;;;;;;13.97;12.67;;;;;;;2.67;81.72;92403.44;5089669;28;20228;-76
2022/03/06 09:05:15;;;;;;;14.80;13.40;;;;;;;3.14;80.89;92427.84;5087442;28;20267;-79
2022/03/06 09:07:41;;;;;;;14.93;13.53;;;;;;;3.52;78.27;92421.88;5087959;28;20231;-79
2022/03/06 09:10:07;;;;;;;13.73;12.67;;;;;;;3.65;76.10;92417.13;5088236;28;20173;-79
2022/03/06 09:12:33;;;;;;;11.30;10.67;;;;;;;3.65;75.83;92406.78;5087202;28;20265;-78
2022/03/06 09:14:59;;;;;;;13.50;12.70;;;;;;;3.27;76.22;92417.16;5088199;28;20216;-79
2022/03/06 09:17:25;;;;;;;12.50;11.67;;;;;;;3.46;77.00;92433.91;5086525;28;20228;-84
2022/03/06 09:19:51;;;;;;;13.80;12.90;;;;;;;3.13;78.09;92428.84;5088696;28;20187;-88
2022/03/06 09:22:16;;;;;;;11.90;11.10;;;;;;;2.90;76.36;92416.94;5087391;28;20246;-83
2022/03/06 09:24:42;;;;;;;12.17;11.37;;;;;;;3.10;76.58;92404.31;5089757;28;20188;-79
2022/03/06 09:27:07;;;;;;;11.17;10.37;;;;;;;3.15;76.50;92432.75;5086968;28;20204;-89
2022/03/06 09:29:33;;;;;;;11.67;10.97;;;;;;;2.85;77.79;92431.53;5083765;28;20192;-84
2022/03/06 09:31:58;;;;;;;12.63;11.93;;;;;;;2.58;77.05;92423.69;5088498;28;20216;-78
2022/03/06 09:34:23;;;;;;;13.20;12.20;;;;;;;2.79;82.34;92417.03;5088617;28;20227;-80
2022/03/06 09:36:49;;;;;;;12.27;11.57;;;;;;;2.94;75.96;92435.28;5089412;28;20193;-85
2022/03/06 09:39:15;;;;;;;11.67;11.07;;;;;;;2.48;78.32;92426.09;5088730;28;20227;-81
2022/03/06 09:41:41;;;;;;;11.97;11.37;;;;;;;2.44;79.94;92439.69;5089969;28;20209;-81
2022/03/06 09:44:10;;;;;;;10.43;9.83;;;;;;;2.47;77.15;92423.75;5089092;28;20247;-82
2022/03/06 09:46:37;;;;;;;11.83;11.13;;;;;;;2.21;79.66;92421.78;5086007;28;20200;-82
2022/03/06 09:49:04;;;;;;;12.97;12.17;;;;;;;2.26;80.65;92437.31;5088577;28;20227;-83
2022/03/06 09:51:34;;;;;;;11.50;10.80;;;;;;;2.26;80.09;92421.84;5090079;28;20197;-82
2022/03/06 09:54:00;;;;;;;13.60;12.53;;;;;;;2.42;78.29;92437.34;5088242;28;20239;-81
2022/03/06 09:56:25;;;;;;;11.47;10.87;;;;;;;2.19;79.46;92424.59;5090215;28;20212;-81
2022/03/06 09:58:51;;;;;;;14.70;12.70;;;;;;;2.50;83.59;92442.09;5087609;28;20216;-82
2022/03/06 10:01:16;;;;;;;12.43;11.63;;;;;;;2.74;82.59;92442.75;5088146;28;20237;-81
2022/03/06 10:03:42;;;;;;;12.27;11.40;;;;;;;2.72;79.64;92455.06;5085483;28;20232;-79
2022/03/06 10:06:10;;;;;;;12.63;11.83;;;;;;;2.67;82.31;92460.94;5086931;28;20201;-79
2022/03/06 10:08:36;;;;;;;13.73;12.83;;;;;;;2.63;82.30;92453.91;5085510;28;20235;-80
2022/03/06 10:11:08;;;;;;;13.20;12.27;;;;;;;2.67;80.22;92447.25;5103952;28;20252;-80
2022/03/06 10:13:37;;;;;;;12.63;11.83;;;;;;;2.68;79.35;92456.53;5087097;28;20237;-78
2022/03/06 10:16:15;;;;;;;11.60;10.70;;;;;;;2.84;79.51;92451.41;5082117;28;20196;-80
2022/03/06 10:18:52;;;;;;;13.50;12.60;;;;;;;2.43;79.88;92440.69;5086696;28;20244;-80
2022/03/06 10:21:23;;;;;;;14.30;13.17;;;;;;;2.59;79.94;92452.78;5088166;28;20177;-81
2022/03/06 10:24:00;;;;;;;13.83;12.77;;;;;;;2.56;80.14;92453.25;5088257;28;20250;-80
2022/03/06 10:26:29;;;;;;;13.10;12.20;;;;;;;2.16;80.66;92455.97;5089514;28;20185;-81
2022/03/06 10:28:58;;;;;;;13.90;12.90;;;;;;;2.43;79.83;92445.84;5089034;28;20233;-81
2022/03/06 10:31:29;;;;;;;14.77;13.60;;;;;;;2.31;79.41;92445.13;5086928;28;21074;-81
2022/03/06 10:33:58;;;;;;;14.53;13.43;;;;;;;2.34;80.75;92448.03;5087330;28;20225;-81
2022/03/06 10:36:46;;;;;;;15.07;13.90;;;;;;;2.28;80.52;92450.72;5087019;28;20936;-83
2022/03/06 10:39:20;;;;;;;15.83;14.63;;;;;;;2.07;80.45;92436.72;5087781;28;20716;-81
2022/03/06 10:41:49;;;;;;;15.50;14.20;;;;;;;2.11;79.65;92424.97;5088961;28;20195;-80
2022/03/06 10:44:16;;;;;;;14.40;13.40;;;;;;;2.15;80.25;92431.22;5085125;28;20259;-81
2022/03/06 10:46:42;;;;;;;14.07;13.27;;;;;;;1.94;80.58;92439.59;5089330;28;20196;-80
2022/03/06 10:49:15;;;;;;;13.47;12.63;;;;;;;1.95;79.81;92415.41;5088178;28;20777;-81
2022/03/06 10:51:52;;;;;;;13.30;12.40;;;;;;;2.39;77.97;92412.06;5088587;28;20187;-81
2022/03/06 10:54:18;;;;;;;12.30;11.30;;;;;;;2.54;77.17;92406.31;5088568;28;20269;-81
2022/03/06 10:56:49;;;;;;;12.53;11.73;;;;;;;2.84;76.59;92422.25;5085131;28;20212;-81
2022/03/06 10:59:18;;;;;;;13.77;12.87;;;;;;;3.02;75.99;92420.19;5089226;28;20217;-80
2022/03/06 11:01:43;;;;;;;13.93;13.03;;;;;;;3.25;77.02;92427.72;5085521;28;20192;-79
2022/03/06 11:04:12;;;;;;;11.67;11.03;;;;;;;3.67;75.61;92429.78;5084209;28;20240;-81
2022/03/06 11:06:42;;;;;;;11.77;11.07;;;;;;;3.79;74.80;92425.25;5089122;28;20181;-81
2022/03/06 11:09:12;;;;;;;12.47;11.70;;;;;;;3.55;75.46;92396.34;5087290;28;20224;-80
2022/03/06 11:11:43;;;;;;;12.57;11.77;;;;;;;3.31;76.32;92419.03;5087569;28;20193;-82
2022/03/06 11:14:09;;;;;;;12.63;11.93;;;;;;;3.14;78.25;92448.47;5086070;28;20231;-82
2022/03/06 11:16:37;;;;;;;12.87;12.07;;;;;;;2.64;79.84;92409.88;5086067;28;20669;-81
2022/03/06 11:19:04;;;;;;;13.30;12.50;;;;;;;2.39;80.07;92421.56;5087866;28;20311;-82
2022/03/06 11:21:33;;;;;;;14.83;13.63;;;;;;;2.21;80.49;92396.81;5088976;28;20200;-82